KFAR

Hector International Airport

Fargo, North Dakota, USA
METAR KFAR 191053Z 20006KT 9SM CLR M02/M04 A2956 RMK AO2 SLP020 T10221039
Observed Flight Rules
Dec-19 @ 10:53 UTC (46 minutes ago) Visual Flight Rules
Wind Visibility Clouds
200° at 6 knots 9 miles
  • Clear skies
Temperatures Readings
Current -2°C / 28°F
Dewpoint -4°C / 25°F
Humidity 86%
Altimeter 29.56" Hg
Pressure 1002 hPa
Elevation 277
METAR KFAR 191053Z 20006KT 9SM CLR M02/M04 A2956 RMK AO2 SLP020 T10221039
Observed Flight Rules
Dec-19 @ 10:53 UTC
(46 minutes ago)
VFR
Wind Visibility
200° at 6 knots 9 miles
Clouds
  • Clear skies
Temperature Dewpoint
-2°C / 28°F -4°C / 25°F
Humidity Altimeter Pressure
86% 29.56" Hg 1002 hPa